sensor_id;sensor_type;location;lat;lon;timestamp;pressure;altitude;pressure_sealevel;temperature;humidity
5350;BME280;2697;42.144;24.794;2024-02-26T00:00:26;11731.81;;;10.53;100.00
5350;BME280;2697;42.144;24.794;2024-02-26T00:02:51;11735.88;;;10.72;100.00
5350;BME280;2697;42.144;24.794;2024-02-26T00:05:16;12404.38;;;10.51;100.00
5350;BME280;2697;42.144;24.794;2024-02-26T00:07:42;11395.63;;;10.54;100.00
5350;BME280;2697;42.144;24.794;2024-02-26T00:10:08;11058.47;;;10.51;100.00
5350;BME280;2697;42.144;24.794;2024-02-26T00:12:33;13758.31;;;10.82;100.00
5350;BME280;2697;42.144;24.794;2024-02-26T00:14:59;22533.09;;;11.01;100.00
5350;BME280;2697;42.144;24.794;2024-02-26T00:17:24;28619.22;;;11.07;100.00
5350;BME280;2697;42.144;24.794;2024-02-26T00:19:50;30985.81;;;11.04;100.00
5350;BME280;2697;42.144;24.794;2024-02-26T00:22:15;28273.66;;;10.92;100.00
5350;BME280;2697;42.144;24.794;2024-02-26T00:24:41;26246.72;;;10.95;100.00
5350;BME280;2697;42.144;24.794;2024-02-26T00:27:06;26924.59;;;10.99;100.00
5350;BME280;2697;42.144;24.794;2024-02-26T00:29:32;29293.25;;;11.02;100.00
5350;BME280;2697;42.144;24.794;2024-02-26T00:31:58;26246.03;;;10.94;100.00
5350;BME280;2697;42.144;24.794;2024-02-26T00:34:24;26248.09;;;10.98;100.00
5350;BME280;2697;42.144;24.794;2024-02-26T00:36:49;25900.22;;;10.76;100.00
5350;BME280;2697;42.144;24.794;2024-02-26T00:39:14;21842.88;;;10.62;100.00
5350;BME280;2697;42.144;24.794;2024-02-26T00:41:40;18128.94;;;10.48;100.00
5350;BME280;2697;42.144;24.794;2024-02-26T00:44:06;16447.28;;;10.59;100.00
5350;BME280;2697;42.144;24.794;2024-02-26T00:46:31;16449.03;;;10.65;100.00
5350;BME280;2697;42.144;24.794;2024-02-26T00:48:56;16449.91;;;10.68;100.00
5350;BME280;2697;42.144;24.794;2024-02-26T00:51:22;16787.94;;;10.72;100.00
5350;BME280;2697;42.144;24.794;2024-02-26T00:53:47;16448.59;;;10.64;100.00
5350;BME280;2697;42.144;24.794;2024-02-26T00:56:13;16444.94;;;10.51;100.00
5350;BME280;2697;42.144;24.794;2024-02-26T00:58:38;14427.63;;;10.65;100.00
5350;BME280;2697;42.144;24.794;2024-02-26T01:01:04;17793.50;;;10.53;100.00
5350;BME280;2697;42.144;24.794;2024-02-26T01:03:29;17457.72;;;10.57;100.00
5350;BME280;2697;42.144;24.794;2024-02-26T01:05:55;14420.25;;;10.36;100.00
5350;BME280;2697;42.144;24.794;2024-02-26T01:08:20;13748.91;;;10.43;100.00
5350;BME280;2697;42.144;24.794;2024-02-26T01:10:45;15090.75;;;10.25;100.00
5350;BME280;2697;42.144;24.794;2024-02-26T01:13:11;11726.78;;;10.29;100.00
5350;BME280;2697;42.144;24.794;2024-02-26T01:15:36;13077.63;;;10.51;100.00
5350;BME280;2697;42.144;24.794;2024-02-26T01:18:01;15765.19;;;10.29;100.00
5350;BME280;2697;42.144;24.794;2024-02-26T01:20:27;11387.19;;;10.13;100.00
5350;BME280;2697;42.144;24.794;2024-02-26T01:22:52;8360.59;;;10.03;100.00
5350;BME280;2697;42.144;24.794;2024-02-26T01:25:18;5675.97;;;10.19;100.00
5350;BME280;2697;42.144;24.794;2024-02-26T01:27:43;6347.50;;;10.19;100.00
5350;BME280;2697;42.144;24.794;2024-02-26T01:30:09;6013.50;;;10.34;100.00
5350;BME280;2697;42.144;24.794;2024-02-26T01:32:35;6012.59;;;10.26;100.00
5350;BME280;2697;42.144;24.794;2024-02-26T01:35:01;5341.16;;;10.28;100.00
5350;BME280;2697;42.144;24.794;2024-02-26T01:37:28;6015.88;;;10.54;100.00
5350;BME280;2697;42.144;24.794;2024-02-26T01:39:55;7695.22;;;10.47;100.00
5350;BME280;2697;42.144;24.794;2024-02-26T01:42:20;8031.41;;;10.48;100.00
5350;BME280;2697;42.144;24.794;2024-02-26T01:44:46;6689.50;;;10.67;100.00
5350;BME280;2697;42.144;24.794;2024-02-26T01:47:12;9715.47;;;10.65;100.00
5350;BME280;2697;42.144;24.794;2024-02-26T01:49:38;10386.16;;;10.53;100.00
5350;BME280;2697;42.144;24.794;2024-02-26T01:52:06;8703.34;;;10.45;100.00
5350;BME280;2697;42.144;24.794;2024-02-26T01:54:33;7695.66;;;10.50;100.00
5350;BME280;2697;42.144;24.794;2024-02-26T01:57:00;8031.72;;;10.50;100.00
5350;BME280;2697;42.144;24.794;2024-02-26T01:59:27;9715.66;;;10.66;100.00
5350;BME280;2697;42.144;24.794;2024-02-26T02:01:55;10723.16;;;10.56;100.00
5350;BME280;2697;42.144;24.794;2024-02-26T02:04:24;9376.31;;;10.48;100.00
5350;BME280;2697;42.144;24.794;2024-02-26T02:06:50;10050.94;;;10.60;100.00
5350;BME280;2697;42.144;24.794;2024-02-26T02:09:16;9712.84;;;10.50;100.00
5350;BME280;2697;42.144;24.794;2024-02-26T02:11:41;8028.91;;;10.31;100.00
5350;BME280;2697;42.144;24.794;2024-02-26T02:14:07;6349.28;;;10.33;100.00
5350;BME280;2697;42.144;24.794;2024-02-26T02:16:32;6682.25;;;10.10;100.00
5350;BME280;2697;42.144;24.794;2024-02-26T02:18:58;7018.91;;;10.16;100.00
5350;BME280;2697;42.144;24.794;2024-02-26T02:21:24;6008.78;;;9.94;100.00
5350;BME280;2697;42.144;24.794;2024-02-26T02:23:49;5673.41;;;9.96;100.00
5350;BME280;2697;42.144;24.794;2024-02-26T02:26:15;5337.94;;;9.98;100.00
5350;BME280;2697;42.144;24.794;2024-02-26T02:28:41;5671.47;;;9.79;100.00
5350;BME280;2697;42.144;24.794;2024-02-26T02:31:07;5000.72;;;9.82;100.00
5350;BME280;2697;42.144;24.794;2024-02-26T02:33:34;4999.63;;;9.71;100.00
5350;BME280;2697;42.144;24.794;2024-02-26T02:35:59;6008.13;;;9.88;100.00
5350;BME280;2697;42.144;24.794;2024-02-26T02:38:25;6677.69;;;9.75;100.00
5350;BME280;2697;42.144;24.794;2024-02-26T02:40:51;8358.63;;;9.90;100.00
5350;BME280;2697;42.144;24.794;2024-02-26T02:43:17;9362.13;;;9.66;100.00
5350;BME280;2697;42.144;24.794;2024-02-26T02:45:42;8352.16;;;9.49;100.00
5350;BME280;2697;42.144;24.794;2024-02-26T02:48:08;6002.66;;;9.41;100.00
5350;BME280;2697;42.144;24.794;2024-02-26T02:50:33;3989.50;;;9.25;100.00
5350;BME280;2697;42.144;24.794;2024-02-26T02:52:58;1309.88;;;9.36;100.00
5350;BME280;2697;42.144;24.794;2024-02-26T02:55:24;305.13;;;9.34;100.00
5350;BME280;2697;42.144;24.794;2024-02-26T02:57:50;-364.91;;;9.05;100.00
5350;BME280;2697;42.144;24.794;2024-02-26T03:00:16;-29.72;;;9.33;100.00
5350;BME280;2697;42.144;24.794;2024-02-26T03:02:41;-699.25;;;9.39;100.00
5350;BME280;2697;42.144;24.794;2024-02-26T03:05:08;-699.31;;;9.31;100.00
5350;BME280;2697;42.144;24.794;2024-02-26T03:07:33;-1034.09;;;9.19;100.00
5350;BME280;2697;42.144;24.794;2024-02-26T03:09:59;-1034.09;;;9.09;100.00
5350;BME280;2697;42.144;24.794;2024-02-26T03:12:24;-1034.09;;;9.08;100.00
5350;BME280;2697;42.144;24.794;2024-02-26T03:14:49;-699.56;;;9.01;100.00
5350;BME280;2697;42.144;24.794;2024-02-26T03:17:15;-365.06;;;8.93;100.00
5350;BME280;2697;42.144;24.794;2024-02-26T03:19:40;-365.13;;;8.90;100.00
5350;BME280;2697;42.144;24.794;2024-02-26T03:22:05;-365.06;;;8.93;100.00
5350;BME280;2697;42.144;24.794;2024-02-26T03:24:31;-1368.69;;;9.04;100.00
5350;BME280;2697;42.144;24.794;2024-02-26T03:26:56;-699.56;;;8.98;100.00
5350;BME280;2697;42.144;24.794;2024-02-26T03:29:22;-365.00;;;8.99;100.00
5350;BME280;2697;42.144;24.794;2024-02-26T03:31:48;-699.59;;;8.97;100.00
5350;BME280;2697;42.144;24.794;2024-02-26T03:34:13;-699.59;;;8.96;100.00
5350;BME280;2697;42.144;24.794;2024-02-26T03:36:40;-699.59;;;8.95;100.00
5350;BME280;2697;42.144;24.794;2024-02-26T03:39:06;-1034.13;;;8.99;100.00
5350;BME280;2697;42.144;24.794;2024-02-26T03:41:33;-1034.13;;;9.02;100.00
5350;BME280;2697;42.144;24.794;2024-02-26T03:43:58;-1368.66;;;8.95;100.00
5350;BME280;2697;42.144;24.794;2024-02-26T03:46:24;-1703.16;;;9.00;100.00
5350;BME280;2697;42.144;24.794;2024-02-26T03:48:49;-1703.16;;;9.00;100.00
5350;BME280;2697;42.144;24.794;2024-02-26T03:51:16;-1703.16;;;8.99;100.00
5350;BME280;2697;42.144;24.794;2024-02-26T03:53:41;-2037.59;;;8.96;100.00
5350;BME280;2697;42.144;24.794;2024-02-26T03:56:07;-2372.09;;;9.00;100.00
5350;BME280;2697;42.144;24.794;2024-02-26T03:58:32;-2706.59;;;9.03;100.00
5350;BME280;2697;42.144;24.794;2024-02-26T04:00:59;-2706.63;;;9.05;100.00
5350;BME280;2697;42.144;24.794;2024-02-26T04:03:25;-3041.28;;;9.13;100.00
5350;BME280;2697;42.144;24.794;2024-02-26T04:05:51;-3041.41;;;9.17;100.00
5350;BME280;2697;42.144;24.794;2024-02-26T04:08:16;-3376.03;;;9.22;100.00
5350;BME280;2697;42.144;24.794;2024-02-26T04:10:41;-3041.91;;;9.33;100.00
5350;BME280;2697;42.144;24.794;2024-02-26T04:13:07;-2372.78;;;9.36;100.00
5350;BME280;2697;42.144;24.794;2024-02-26T04:15:33;-1034.03;;;9.43;100.00
5350;BME280;2697;42.144;24.794;2024-02-26T04:17:58;-364.31;;;9.49;100.00
5350;BME280;2697;42.144;24.794;2024-02-26T04:20:24;-364.19;;;9.60;100.00
5350;BME280;2697;42.144;24.794;2024-02-26T04:22:49;975.66;;;9.56;100.00
5350;BME280;2697;42.144;24.794;2024-02-26T04:25:14;2651.25;;;9.58;100.00
5350;BME280;2697;42.144;24.794;2024-02-26T04:27:40;3657.19;;;9.61;100.00
5350;BME280;2697;42.144;24.794;2024-02-26T04:30:06;4327.81;;;9.61;100.00
5350;BME280;2697;42.144;24.794;2024-02-26T04:32:32;5333.53;;;9.57;100.00
5350;BME280;2697;42.144;24.794;2024-02-26T04:34:58;6004.91;;;9.61;100.00
5350;BME280;2697;42.144;24.794;2024-02-26T04:37:23;7010.28;;;9.52;100.00
5350;BME280;2697;42.144;24.794;2024-02-26T04:39:48;8353.41;;;9.57;100.00
5350;BME280;2697;42.144;24.794;2024-02-26T04:42:14;8017.91;;;9.58;100.00
5350;BME280;2697;42.144;24.794;2024-02-26T04:44:39;8352.78;;;9.53;100.00
5350;BME280;2697;42.144;24.794;2024-02-26T04:47:05;9022.63;;;9.43;100.00
5350;BME280;2697;42.144;24.794;2024-02-26T04:49:30;8687.38;;;9.46;100.00
5350;BME280;2697;42.144;24.794;2024-02-26T04:51:55;8687.22;;;9.45;100.00
5350;BME280;2697;42.144;24.794;2024-02-26T04:54:21;9024.47;;;9.55;100.00
5350;BME280;2697;42.144;24.794;2024-02-26T04:56:46;10029.91;;;9.45;100.00
5350;BME280;2697;42.144;24.794;2024-02-26T04:59:12;10365.88;;;9.46;100.00
5350;BME280;2697;42.144;24.794;2024-02-26T05:01:37;10028.88;;;9.39;100.00
5350;BME280;2697;42.144;24.794;2024-02-26T05:04:03;9694.63;;;9.47;100.00
5350;BME280;2697;42.144;24.794;2024-02-26T05:06:29;10365.28;;;9.42;100.00
5350;BME280;2697;42.144;24.794;2024-02-26T05:08:54;9696.44;;;9.57;100.00
5350;BME280;2697;42.144;24.794;2024-02-26T05:11:20;11038.09;;;9.49;100.00
5350;BME280;2697;42.144;24.794;2024-02-26T05:13:45;11038.09;;;9.49;100.00
5350;BME280;2697;42.144;24.794;2024-02-26T05:16:11;11037.59;;;9.46;100.00
5350;BME280;2697;42.144;24.794;2024-02-26T05:18:36;11373.34;;;9.46;100.00
5350;BME280;2697;42.144;24.794;2024-02-26T05:21:01;11374.19;;;9.50;100.00
5350;BME280;2697;42.144;24.794;2024-02-26T05:23:28;12043.72;;;9.39;100.00
5350;BME280;2697;42.144;24.794;2024-02-26T05:25:54;11710.00;;;9.49;100.00
5350;BME280;2697;42.144;24.794;2024-02-26T05:28:19;12719.84;;;9.58;100.00
5350;BME280;2697;42.144;24.794;2024-02-26T05:30:45;13392.25;;;9.59;100.00
5350;BME280;2697;42.144;24.794;2024-02-26T05:33:11;13729.38;;;9.63;100.00
5350;BME280;2697;42.144;24.794;2024-02-26T05:35:37;14067.84;;;9.72;100.00
5350;BME280;2697;42.144;24.794;2024-02-26T05:38:03;14403.84;;;9.71;100.00
5350;BME280;2697;42.144;24.794;2024-02-26T05:40:28;14068.59;;;9.75;100.00
5350;BME280;2697;42.144;24.794;2024-02-26T05:42:55;14404.22;;;9.73;100.00
5350;BME280;2697;42.144;24.794;2024-02-26T05:45:20;14067.09;;;9.69;100.00
5350;BME280;2697;42.144;24.794;2024-02-26T05:47:47;14068.34;;;9.74;100.00
5350;BME280;2697;42.144;24.794;2024-02-26T05:50:12;14741.44;;;9.76;100.00
5350;BME280;2697;42.144;24.794;2024-02-26T05:52:38;15077.78;;;9.76;100.00
5350;BME280;2697;42.144;24.794;2024-02-26T05:55:04;16086.88;;;9.76;100.00
5350;BME280;2697;42.144;24.794;2024-02-26T05:57:31;16424.94;;;9.81;100.00
5350;BME280;2697;42.144;24.794;2024-02-26T05:59:56;19123.78;;;9.99;100.00
5350;BME280;2697;42.144;24.794;2024-02-26T06:02:22;21822.28;;;10.07;100.00
5350;BME280;2697;42.144;24.794;2024-02-26T06:04:47;23176.00;;;10.19;100.00
5350;BME280;2697;42.144;24.794;2024-02-26T06:07:12;25195.94;;;10.09;100.00
5350;BME280;2697;42.144;24.794;2024-02-26T06:09:38;24530.75;;;10.32;100.00
5350;BME280;2697;42.144;24.794;2024-02-26T06:12:04;26895.25;;;10.35;100.00
5350;BME280;2697;42.144;24.794;2024-02-26T06:14:30;25545.13;;;10.36;100.00
5350;BME280;2697;42.144;24.794;2024-02-26T06:16:55;28595.00;;;10.57;100.00
5350;BME280;2697;42.144;24.794;2024-02-26T06:19:21;31631.44;;;10.45;100.00
5350;BME280;2697;42.144;24.794;2024-02-26T06:21:46;28251.44;;;10.46;100.00
5350;BME280;2697;42.144;24.794;2024-02-26T06:24:11;28242.91;;;10.28;100.00
5350;BME280;2697;42.144;24.794;2024-02-26T06:26:37;24860.47;;;10.14;100.00
5350;BME280;2697;42.144;24.794;2024-02-26T06:29:02;24850.09;;;9.89;100.00
5350;BME280;2697;42.144;24.794;2024-02-26T06:31:27;25879.13;;;10.28;100.00
5350;BME280;2697;42.144;24.794;2024-02-26T06:33:53;28581.94;;;10.31;100.00
5350;BME280;2697;42.144;24.794;2024-02-26T06:36:20;29924.16;;;10.12;100.00
5350;BME280;2697;42.144;24.794;2024-02-26T06:38:45;29919.00;;;10.02;100.00
5350;BME280;2697;42.144;24.794;2024-02-26T06:41:11;25534.47;;;10.12;100.00
5350;BME280;2697;42.144;24.794;2024-02-26T06:43:36;23852.72;;;10.24;100.00
5350;BME280;2697;42.144;24.794;2024-02-26T06:46:02;30275.84;;;10.39;100.00
5350;BME280;2697;42.144;24.794;2024-02-26T06:48:27;30949.84;;;10.35;100.00
5350;BME280;2697;42.144;24.794;2024-02-26T06:50:53;32325.63;;;10.78;100.00
5350;BME280;2697;42.144;24.794;2024-02-26T06:53:18;36390.22;;;10.80;100.00
5350;BME280;2697;42.144;24.794;2024-02-26T06:55:44;43518.69;;;10.91;100.00
5350;BME280;2697;42.144;24.794;2024-02-26T06:58:09;41816.84;;;10.84;100.00
5350;BME280;2697;42.144;24.794;2024-02-26T07:00:35;41823.25;;;10.93;100.00
5350;BME280;2697;42.144;24.794;2024-02-26T07:03:00;46247.81;;;11.07;100.00
5350;BME280;2697;42.144;24.794;2024-02-26T07:05:27;45234.41;;;11.15;100.00
5350;BME280;2697;42.144;24.794;2024-02-26T07:07:52;47251.97;;;10.88;100.00
5350;BME280;2697;42.144;24.794;2024-02-26T07:10:18;52373.81;;;11.13;100.00
5350;BME280;2697;42.144;24.794;2024-02-26T07:12:43;52711.47;;;11.10;100.00
5350;BME280;2697;42.144;24.794;2024-02-26T07:15:09;55075.88;;;10.90;100.00
5350;BME280;2697;42.144;24.794;2024-02-26T07:17:35;48287.41;;;11.08;100.00
5350;BME280;2697;42.144;24.794;2024-02-26T07:20:01;56145.44;;;11.41;100.00
5350;BME280;2697;42.144;24.794;2024-02-26T07:22:26;59557.53;;;11.44;100.00
5350;BME280;2697;42.144;24.794;2024-02-26T07:24:51;55466.22;;;11.44;100.00
5350;BME280;2697;42.144;24.794;2024-02-26T07:27:18;50688.44;;;11.32;100.00
5350;BME280;2697;42.144;24.794;2024-02-26T07:29:44;58867.88;;;11.36;100.00
5350;BME280;2697;42.144;24.794;2024-02-26T07:32:09;52385.38;;;11.27;100.00
5350;BME280;2697;42.144;24.794;2024-02-26T07:34:35;54088.69;;;11.28;100.00
5350;BME280;2697;42.144;24.794;2024-02-26T07:37:03;54100.63;;;11.41;100.00
5350;BME280;2697;42.144;24.794;2024-02-26T07:39:28;58220.47;;;11.72;100.00
5350;BME280;2697;42.144;24.794;2024-02-26T07:41:53;61974.97;;;11.72;100.00
5350;BME280;2697;42.144;24.794;2024-02-26T07:44:19;72936.53;;;11.88;100.00
5350;BME280;2697;42.144;24.794;2024-02-26T07:46:44;70874.81;;;11.82;100.00
5350;BME280;2697;42.144;24.794;2024-02-26T07:49:10;60226.56;;;11.31;100.00
5350;BME280;2697;42.144;24.794;2024-02-26T07:51:35;59923.06;;;11.68;100.00
5350;BME280;2697;42.144;24.794;2024-02-26T07:54:00;87415.72;;;12.35;100.00
5350;BME280;2697;42.144;24.794;2024-02-26T07:56:26;91492.56;;;11.99;100.00
5350;BME280;2697;42.144;24.794;2024-02-26T07:58:52;90825.03;;;12.13;100.00
5350;BME280;2697;42.144;24.794;2024-02-26T08:01:17;90126.84;;;12.07;100.00
5350;BME280;2697;42.144;24.794;2024-02-26T08:03:42;96386.13;;;12.45;100.00
5350;BME280;2697;42.144;24.794;2024-02-26T08:06:08;113348.69;;;12.61;100.00
5350;BME280;2697;42.144;24.794;2024-02-26T08:08:34;123445.22;;;12.80;100.00
5350;BME280;2697;42.144;24.794;2024-02-26T08:11:00;122494.41;;;13.25;100.00
5350;BME280;2697;42.144;24.794;2024-02-26T08:13:25;147548.09;;;13.15;100.00
5350;BME280;2697;42.144;24.794;2024-02-26T08:15:51;156038.84;;;13.45;100.00
5350;BME280;2697;42.144;24.794;2024-02-26T08:18:17;156030.94;;;13.42;100.00
5350;BME280;2697;42.144;24.794;2024-02-26T08:20:42;156100.91;;;13.69;100.00
5350;BME280;2697;42.144;24.794;2024-02-26T08:23:08;155999.22;;;13.30;100.00
5350;BME280;2697;42.144;24.794;2024-02-26T08:25:33;156054.69;;;13.51;100.00
5350;BME280;2697;42.144;24.794;2024-02-26T08:27:59;156136.50;;;13.83;100.00
5350;BME280;2697;42.144;24.794;2024-02-26T08:30:24;156182.72;;;14.01;100.00
5350;BME280;2697;42.144;24.794;2024-02-26T08:32:49;155950.38;;;13.11;100.00
5350;BME280;2697;42.144;24.794;2024-02-26T08:35:15;156052.06;;;13.50;100.00
5350;BME280;2697;42.144;24.794;2024-02-26T08:37:44;156098.25;;;13.68;100.00
5350;BME280;2697;42.144;24.794;2024-02-26T08:40:10;156244.81;;;14.24;100.00
5350;BME280;2697;42.144;24.794;2024-02-26T08:42:35;156296.31;;;14.44;100.00
5350;BME280;2697;42.144;24.794;2024-02-26T08:45:02;156279.13;;;14.38;100.00
5350;BME280;2697;42.144;24.794;2024-02-26T08:47:27;156264.56;;;14.32;100.00
5350;BME280;2697;42.144;24.794;2024-02-26T08:49:53;156256.66;;;14.29;100.00
5350;BME280;2697;42.144;24.794;2024-02-26T08:52:19;156169.50;;;13.95;100.00
5350;BME280;2697;42.144;24.794;2024-02-26T08:54:44;156314.81;;;14.51;100.00
5350;BME280;2697;42.144;24.794;2024-02-26T08:57:10;156392.78;;;14.81;100.00
5350;BME280;2697;42.144;24.794;2024-02-26T08:59:35;156518.31;;;15.30;100.00
5350;BME280;2697;42.144;24.794;2024-02-26T09:02:00;156476.00;;;15.14;100.00
5350;BME280;2697;42.144;24.794;2024-02-26T09:04:26;156478.63;;;15.15;100.00
5350;BME280;2697;42.144;24.794;2024-02-26T09:06:52;156629.34;;;15.73;100.00
5350;BME280;2697;42.144;24.794;2024-02-26T09:09:18;156598.97;;;15.61;100.00
5350;BME280;2697;42.144;24.794;2024-02-26T09:11:43;156542.09;;;15.39;100.00
5350;BME280;2697;42.144;24.794;2024-02-26T09:14:09;156658.47;;;15.84;100.00
5350;BME280;2697;42.144;24.794;2024-02-26T09:16:34;156618.78;;;15.68;100.00
5350;BME280;2697;42.144;24.794;2024-02-26T09:18:59;156751.03;;;16.19;100.00
5350;BME280;2697;42.144;24.794;2024-02-26T09:21:25;156702.06;;;16.01;100.00
5350;BME280;2697;42.144;24.794;2024-02-26T09:23:52;156584.41;;;15.55;100.00
5350;BME280;2697;42.144;24.794;2024-02-26T09:26:17;156382.19;;;14.77;100.00
5350;BME280;2697;42.144;24.794;2024-02-26T09:28:43;156444.31;;;15.01;100.00
5350;BME280;2697;42.144;24.794;2024-02-26T09:31:08;156561.94;;;15.47;100.00
5350;BME280;2697;42.144;24.794;2024-02-26T09:33:34;156556.59;;;15.45;100.00
5350;BME280;2697;42.144;24.794;2024-02-26T09:35:59;156507.69;;;15.26;100.00
5350;BME280;2697;42.144;24.794;2024-02-26T09:38:28;156594.94;;;15.59;100.00
5350;BME280;2697;42.144;24.794;2024-02-26T09:40:56;156613.53;;;15.66;100.00
5350;BME280;2697;42.144;24.794;2024-02-26T09:43:23;156768.19;;;16.26;100.00
5350;BME280;2697;42.144;24.794;2024-02-26T09:45:53;156676.94;;;15.91;100.00
5350;BME280;2697;42.144;24.794;2024-02-26T09:48:18;156806.56;;;16.41;99.17
5350;BME280;2697;42.144;24.794;2024-02-26T09:50:45;156621.44;;;15.70;100.00
5350;BME280;2697;42.144;24.794;2024-02-26T09:53:12;156764.25;;;16.24;100.00
5350;BME280;2697;42.144;24.794;2024-02-26T09:55:37;156744.41;;;16.17;100.00
5350;BME280;2697;42.144;24.794;2024-02-26T09:58:05;156748.34;;;16.18;99.02
5350;BME280;2697;42.144;24.794;2024-02-26T10:00:31;156353.13;;;14.66;100.00
5350;BME280;2697;42.144;24.794;2024-02-26T10:03:13;156551.31;;;15.43;100.00
5350;BME280;2697;42.144;24.794;2024-02-26T10:05:41;156646.56;;;15.79;100.00
5350;BME280;2697;42.144;24.794;2024-02-26T10:08:08;156692.84;;;15.97;100.00
5350;BME280;2697;42.144;24.794;2024-02-26T10:10:34;156494.50;;;15.21;100.00
5350;BME280;2697;42.144;24.794;2024-02-26T10:13:01;156499.78;;;15.23;100.00
5350;BME280;2697;42.144;24.794;2024-02-26T10:15:26;156612.19;;;15.66;100.00
5350;BME280;2697;42.144;24.794;2024-02-26T10:17:52;156629.34;;;15.73;100.00
5350;BME280;2697;42.144;24.794;2024-02-26T10:20:18;156741.75;;;16.16;100.00
5350;BME280;2697;42.144;24.794;2024-02-26T10:22:46;156515.66;;;15.29;100.00
5350;BME280;2697;42.144;24.794;2024-02-26T10:25:12;156588.34;;;15.57;100.00
5350;BME280;2697;42.144;24.794;2024-02-26T10:27:37;156706.06;;;16.02;100.00
5350;BME280;2697;42.144;24.794;2024-02-26T10:30:23;156745.72;;;16.17;97.28
5350;BME280;2697;42.144;24.794;2024-02-26T10:32:51;156778.81;;;16.30;96.08
5350;BME280;2697;42.144;24.794;2024-02-26T10:35:17;156745.72;;;16.17;98.45
5350;BME280;2697;42.144;24.794;2024-02-26T10:37:43;156883.34;;;16.70;93.17
5350;BME280;2697;42.144;24.794;2024-02-26T10:40:15;156962.72;;;17.01;89.53
5350;BME280;2697;42.144;24.794;2024-02-26T10:42:41;157017.00;;;17.22;89.89
5350;BME280;2697;42.144;24.794;2024-02-26T10:45:08;156941.53;;;16.93;88.37
5350;BME280;2697;42.144;24.794;2024-02-26T10:47:37;156954.78;;;16.98;89.09
5350;BME280;2697;42.144;24.794;2024-02-26T10:50:05;157056.69;;;17.37;84.44
5350;BME280;2697;42.144;24.794;2024-02-26T10:52:35;156673.00;;;15.89;100.00
5350;BME280;2697;42.144;24.794;2024-02-26T10:55:02;156875.38;;;16.67;93.73
5350;BME280;2697;42.144;24.794;2024-02-26T10:57:33;156852.88;;;16.59;88.08
5350;BME280;2697;42.144;24.794;2024-02-26T11:00:00;156786.72;;;16.33;89.96
5350;BME280;2697;42.144;24.794;2024-02-26T11:02:26;156729.88;;;16.11;90.51
5350;BME280;2697;42.144;24.794;2024-02-26T11:04:52;156724.56;;;16.09;88.41
5350;BME280;2697;42.144;24.794;2024-02-26T11:07:19;156790.69;;;16.35;86.80
5350;BME280;2697;42.144;24.794;2024-02-26T11:09:46;156795.97;;;16.37;86.37
5350;BME280;2697;42.144;24.794;2024-02-26T11:12:17;156803.94;;;16.40;85.49
5350;BME280;2697;42.144;24.794;2024-02-26T11:14:46;156842.28;;;16.54;86.15
5350;BME280;2697;42.144;24.794;2024-02-26T11:17:12;157118.94;;;17.61;79.58
5350;BME280;2697;42.144;24.794;2024-02-26T11:19:39;156991.81;;;17.12;81.59
5350;BME280;2697;42.144;24.794;2024-02-26T11:22:07;157174.56;;;17.82;82.69
5350;BME280;2697;42.144;24.794;2024-02-26T11:24:32;157308.34;;;18.34;76.59
5350;BME280;2697;42.144;24.794;2024-02-26T11:27:01;157309.66;;;18.34;74.21
5350;BME280;2697;42.144;24.794;2024-02-26T11:29:32;157079.19;;;17.46;77.38
5350;BME280;2697;42.144;24.794;2024-02-26T11:32:00;157137.41;;;17.68;79.71
5350;BME280;2697;42.144;24.794;2024-02-26T11:34:26;156878.06;;;16.68;82.98
5350;BME280;2697;42.144;24.794;2024-02-26T11:36:52;156968.00;;;17.03;85.18
5350;BME280;2697;42.144;24.794;2024-02-26T11:39:18;157179.84;;;17.84;79.92
5350;BME280;2697;42.144;24.794;2024-02-26T11:41:44;157134.78;;;17.67;77.78
5350;BME280;2697;42.144;24.794;2024-02-26T11:44:10;156966.69;;;17.02;81.23
5350;BME280;2697;42.144;24.794;2024-02-26T11:46:40;157110.94;;;17.58;79.62
5350;BME280;2697;42.144;24.794;2024-02-26T11:51:54;157171.91;;;17.81;76.93
5350;BME280;2697;42.144;24.794;2024-02-26T11:54:39;157336.16;;;18.44;75.41
5350;BME280;2697;42.144;24.794;2024-02-26T11:57:29;157285.81;;;18.25;74.71
5350;BME280;2697;42.144;24.794;2024-02-26T12:00:15;157174.56;;;17.82;76.02
5350;BME280;2697;42.144;24.794;2024-02-26T12:05:16;157299.03;;;18.30;73.09
5350;BME280;2697;42.144;24.794;2024-02-26T12:07:45;157357.34;;;18.52;75.09
5350;BME280;2697;42.144;24.794;2024-02-26T12:10:25;157321.56;;;18.39;72.66
5350;BME280;2697;42.144;24.794;2024-02-26T12:12:58;157521.66;;;19.16;70.43
5350;BME280;2697;42.144;24.794;2024-02-26T12:15:24;157383.84;;;18.63;70.32
5350;BME280;2697;42.144;24.794;2024-02-26T12:17:56;157382.53;;;18.62;71.52
5350;BME280;2697;42.144;24.794;2024-02-26T12:20:21;157354.66;;;18.51;70.45
5350;BME280;2697;42.144;24.794;2024-02-26T12:22:47;157367.94;;;18.57;69.43
5350;BME280;2697;42.144;24.794;2024-02-26T12:25:13;157216.94;;;17.99;72.86
5350;BME280;2697;42.144;24.794;2024-02-26T12:27:39;157333.50;;;18.43;70.72
5350;BME280;2697;42.144;24.794;2024-02-26T12:30:05;157129.50;;;17.65;72.61
5350;BME280;2697;42.144;24.794;2024-02-26T12:32:31;157058.00;;;17.37;74.39
5350;BME280;2697;42.144;24.794;2024-02-26T12:34:58;157126.84;;;17.64;73.58
5350;BME280;2697;42.144;24.794;2024-02-26T12:37:26;157145.44;;;17.71;74.43
5350;BME280;2697;42.144;24.794;2024-02-26T12:39:52;157296.41;;;18.29;70.79
5350;BME280;2697;42.144;24.794;2024-02-26T12:42:18;157391.81;;;18.66;66.86
5350;BME280;2697;42.144;24.794;2024-02-26T12:44:45;157296.41;;;18.29;70.52
5350;BME280;2697;42.144;24.794;2024-02-26T12:47:11;157234.13;;;18.05;70.48
5350;BME280;2697;42.144;24.794;2024-02-26T12:49:42;157394.47;;;18.67;69.24
5350;BME280;2697;42.144;24.794;2024-02-26T12:52:08;157431.59;;;18.81;68.25
5350;BME280;2697;42.144;24.794;2024-02-26T12:54:33;157365.28;;;18.56;69.51
5350;BME280;2697;42.144;24.794;2024-02-26T12:57:00;157333.50;;;18.43;68.53
5350;BME280;2697;42.144;24.794;2024-02-26T12:59:27;157483.25;;;19.01;65.90
5350;BME280;2697;42.144;24.794;2024-02-26T13:01:53;157473.97;;;18.97;65.21